createdAt,value
2023-05-05T00:01:33.166Z,4.40
2023-05-05T00:04:00.321Z,4.28
2023-05-05T00:06:31.532Z,3.95
2023-05-05T00:08:58.555Z,4.00
2023-05-05T00:11:26.068Z,4.25
2023-05-05T00:13:53.071Z,4.05
2023-05-05T00:16:20.133Z,4.78
2023-05-05T00:18:47.515Z,4.78
2023-05-05T00:21:15.561Z,4.50
2023-05-05T00:23:42.574Z,4.80
2023-05-05T00:26:09.544Z,5.15
2023-05-05T00:28:38.052Z,5.78
2023-05-05T00:31:05.186Z,6.28
2023-05-05T00:33:32.191Z,6.07
2023-05-05T00:35:59.562Z,6.45
2023-05-05T00:38:26.726Z,6.32
2023-05-05T00:40:53.824Z,6.55
2023-05-05T00:43:20.941Z,6.60
2023-05-05T00:46:09.527Z,6.97
2023-05-05T00:48:36.544Z,7.15
2023-05-05T00:51:08.534Z,7.47
2023-05-05T00:53:36.223Z,6.85
2023-05-05T00:56:03.497Z,7.60
2023-05-05T00:58:30.674Z,7.25
2023-05-05T01:00:57.618Z,8.13
2023-05-05T01:03:24.914Z,7.97
2023-05-05T01:06:06.892Z,7.70
2023-05-05T01:08:55.523Z,8.02
2023-05-05T01:11:34.642Z,8.50
2023-05-05T01:14:34.346Z,8.75
2023-05-05T01:17:15.626Z,8.38
2023-05-05T01:20:22.687Z,8.52
2023-05-05T01:23:01.334Z,8.77
2023-05-05T01:25:41.318Z,9.75
2023-05-05T01:28:27.955Z,10.23
2023-05-05T01:31:17.682Z,10.20
2023-05-05T01:33:52.849Z,9.07
2023-05-05T01:36:32.718Z,10.25
2023-05-05T01:39:04.458Z,10.60
2023-05-05T01:42:02.610Z,10.27
2023-05-05T01:44:32.605Z,10.18
2023-05-05T01:47:03.167Z,10.68
2023-05-05T01:49:33.248Z,10.52
2023-05-05T01:52:03.671Z,9.90
2023-05-05T01:54:34.570Z,10.50
2023-05-05T01:57:06.233Z,11.18
2023-05-05T01:59:35.673Z,11.20
2023-05-05T02:02:04.015Z,11.07
2023-05-05T02:04:35.343Z,10.57
2023-05-05T02:07:04.869Z,11.48
2023-05-05T02:09:33.354Z,10.88
2023-05-05T02:12:03.792Z,11.13
2023-05-05T02:14:32.831Z,11.38
2023-05-05T02:17:01.457Z,11.75
2023-05-05T02:19:41.784Z,10.85
2023-05-05T02:22:08.991Z,10.75
2023-05-05T02:24:36.196Z,11.50
2023-05-05T02:27:07.301Z,10.50
2023-05-05T02:29:52.024Z,10.82
2023-05-05T02:32:32.338Z,10.68
2023-05-05T02:35:26.695Z,11.25
2023-05-05T02:38:02.830Z,10.50
2023-05-05T02:40:37.531Z,11.05
2023-05-05T02:43:10.896Z,11.63
2023-05-05T02:45:38.974Z,10.95
2023-05-05T02:48:06.629Z,11.20
2023-05-05T02:50:38.372Z,11.13
2023-05-05T02:53:26.833Z,10.55
2023-05-05T02:56:01.978Z,10.80
2023-05-05T02:58:52.936Z,10.90
2023-05-05T03:01:57.667Z,11.10
2023-05-05T03:04:48.691Z,11.00
2023-05-05T03:07:37.700Z,10.77
2023-05-05T03:10:12.085Z,10.70
2023-05-05T03:12:53.848Z,10.30
2023-05-05T03:15:44.680Z,11.30
2023-05-05T03:18:15.573Z,10.48
2023-05-05T03:20:46.880Z,10.65
2023-05-05T03:23:18.329Z,10.32
2023-05-05T03:25:48.800Z,11.40
2023-05-05T03:28:28.077Z,11.18
2023-05-05T03:30:57.769Z,11.02
2023-05-05T03:33:25.625Z,11.50
2023-05-05T03:35:52.677Z,10.57
2023-05-05T03:38:19.633Z,12.05
2023-05-05T03:40:46.622Z,11.45
2023-05-05T03:43:17.687Z,11.85
2023-05-05T03:45:44.763Z,12.30
2023-05-05T03:48:12.166Z,11.77
2023-05-05T03:50:40.930Z,11.38
2023-05-05T03:53:08.493Z,11.20
2023-05-05T03:55:35.529Z,10.98
2023-05-05T03:58:02.535Z,11.57
2023-05-05T04:00:29.501Z,11.27
2023-05-05T04:02:56.973Z,11.30
2023-05-05T04:05:26.482Z,11.32
2023-05-05T04:07:54.017Z,10.68
2023-05-05T04:10:21.522Z,11.40
2023-05-05T04:12:48.896Z,10.85
2023-05-05T04:15:16.104Z,10.32
2023-05-05T04:17:43.691Z,11.38
2023-05-05T04:20:11.355Z,10.63
2023-05-05T04:22:38.580Z,10.68
2023-05-05T04:25:06.676Z,9.90
2023-05-05T04:27:33.714Z,9.43
2023-05-05T04:30:01.086Z,9.75
2023-05-05T04:32:28.395Z,9.68
2023-05-05T04:34:55.804Z,10.02
2023-05-05T04:37:23.376Z,10.07
2023-05-05T04:39:53.138Z,9.80
2023-05-05T04:42:20.367Z,8.38
2023-05-05T04:44:47.397Z,7.70
2023-05-05T04:47:14.895Z,8.35
2023-05-05T04:49:42.466Z,7.03
2023-05-05T04:52:11.817Z,6.18
2023-05-05T04:54:38.917Z,7.00
2023-05-05T04:57:06.314Z,6.18
2023-05-05T04:59:33.372Z,7.10
2023-05-05T05:02:00.374Z,6.63
2023-05-05T05:04:27.949Z,7.22
2023-05-05T05:06:56.229Z,8.13
2023-05-05T05:09:25.468Z,6.07
2023-05-05T05:11:53.352Z,5.97
2023-05-05T05:14:21.787Z,6.32
2023-05-05T05:16:52.298Z,6.05
2023-05-05T05:19:21.295Z,6.53
2023-05-05T05:21:48.471Z,6.80
2023-05-05T05:24:16.280Z,7.68
2023-05-05T05:26:43.892Z,7.72
2023-05-05T05:29:11.164Z,7.00
2023-05-05T05:31:39.739Z,6.20
2023-05-05T05:34:07.334Z,6.57
2023-05-05T05:36:35.149Z,7.03
2023-05-05T05:39:02.910Z,6.57
2023-05-05T05:41:29.896Z,6.85
2023-05-05T05:43:57.156Z,6.80
2023-05-05T05:46:24.325Z,6.30
2023-05-05T05:48:51.272Z,7.50
2023-05-05T05:51:18.889Z,8.32
2023-05-05T05:53:47.303Z,6.82
2023-05-05T05:56:14.392Z,6.93
2023-05-05T05:58:42.363Z,7.60
2023-05-05T06:01:10.161Z,7.32
2023-05-05T06:03:37.313Z,7.13
2023-05-05T06:06:04.612Z,7.57
2023-05-05T06:08:31.551Z,7.78
2023-05-05T06:11:00.515Z,7.90
2023-05-05T06:13:27.644Z,8.05
2023-05-05T06:15:54.769Z,8.50
2023-05-05T06:18:21.875Z,8.20
2023-05-05T06:20:50.883Z,8.52
2023-05-05T06:23:19.066Z,9.90
2023-05-05T06:25:55.638Z,9.65
2023-05-05T06:28:22.785Z,9.10
2023-05-05T06:30:49.751Z,10.15
2023-05-05T06:33:16.802Z,9.88
2023-05-05T06:35:43.794Z,10.18
2023-05-05T06:38:10.820Z,10.98
2023-05-05T06:40:37.796Z,9.88
2023-05-05T06:43:05.342Z,10.80
2023-05-05T06:45:36.772Z,10.10
2023-05-05T06:48:03.939Z,10.65
2023-05-05T06:50:30.939Z,11.70
2023-05-05T06:52:57.933Z,10.60
2023-05-05T06:55:25.407Z,11.38
2023-05-05T06:57:52.495Z,10.18
2023-05-05T07:00:19.972Z,11.20
2023-05-05T07:02:47.628Z,11.18
2023-05-05T07:05:14.664Z,11.25
2023-05-05T07:07:57.320Z,11.50
2023-05-05T07:10:25.880Z,11.00
2023-05-05T07:12:54.798Z,10.77
2023-05-05T07:15:28.534Z,10.98
2023-05-05T07:17:57.272Z,10.93
2023-05-05T07:20:24.717Z,10.65
2023-05-05T07:22:51.806Z,11.10
2023-05-05T07:25:18.945Z,10.57
2023-05-05T07:27:46.072Z,10.95
2023-05-05T07:30:17.356Z,10.65
2023-05-05T07:32:45.956Z,10.27
2023-05-05T07:35:13.525Z,10.68
2023-05-05T07:37:40.516Z,10.23
2023-05-05T07:40:08.805Z,10.43
2023-05-05T07:42:36.237Z,10.90
2023-05-05T07:45:04.232Z,10.13
2023-05-05T07:47:33.410Z,10.07
2023-05-05T07:50:01.152Z,10.55
2023-05-05T07:52:44.266Z,10.63
2023-05-05T07:55:15.258Z,9.23
2023-05-05T07:57:42.263Z,10.30
2023-05-05T08:00:10.774Z,8.07
2023-05-05T08:02:41.370Z,7.75
2023-05-05T08:05:09.459Z,8.77
2023-05-05T08:07:40.988Z,8.18
2023-05-05T08:10:11.250Z,9.13
2023-05-05T08:12:38.985Z,9.43
2023-05-05T08:15:06.883Z,9.40
2023-05-05T08:17:55.782Z,8.85
2023-05-05T08:20:27.209Z,8.38
2023-05-05T08:22:54.269Z,8.68
2023-05-05T08:25:21.203Z,8.05
2023-05-05T08:27:48.231Z,8.32
2023-05-05T08:30:17.162Z,7.55
2023-05-05T08:32:44.263Z,7.53
2023-05-05T08:35:11.880Z,7.53
2023-05-05T08:37:39.318Z,6.78
2023-05-05T08:40:07.276Z,6.13
2023-05-05T08:42:38.389Z,6.85
2023-05-05T08:45:10.922Z,6.65
2023-05-05T08:47:39.170Z,6.50
2023-05-05T08:50:10.180Z,6.82
2023-05-05T08:52:44.484Z,6.82
2023-05-05T08:55:24.455Z,7.20
2023-05-05T08:57:56.444Z,7.50
2023-05-05T09:00:26.432Z,7.30
2023-05-05T09:02:57.415Z,8.18
2023-05-05T09:05:26.006Z,6.85
2023-05-05T09:07:53.438Z,7.82
2023-05-05T09:10:20.906Z,6.47
2023-05-05T09:12:50.392Z,6.15
2023-05-05T09:15:17.544Z,5.40
2023-05-05T09:17:44.650Z,5.10
2023-05-05T09:20:14.368Z,5.32
2023-05-05T09:22:44.813Z,4.70
2023-05-05T09:25:15.080Z,4.97
2023-05-05T09:27:43.562Z,5.20
2023-05-05T09:30:14.673Z,4.43
2023-05-05T09:32:49.543Z,4.32
2023-05-05T09:35:19.089Z,4.90
2023-05-05T09:37:47.007Z,4.15
2023-05-05T09:40:17.305Z,4.18
2023-05-05T09:42:47.614Z,4.30
2023-05-05T09:45:17.633Z,4.25
2023-05-05T09:47:49.255Z,4.00
2023-05-05T09:50:20.998Z,4.13
2023-05-05T09:52:58.624Z,3.95
2023-05-05T09:55:25.984Z,4.07
2023-05-05T09:57:53.126Z,4.60
2023-05-05T10:00:21.175Z,6.18
2023-05-05T10:02:48.283Z,5.22
2023-05-05T10:05:18.231Z,5.07
2023-05-05T10:07:47.602Z,5.82
2023-05-05T10:10:18.442Z,4.05
2023-05-05T10:12:47.568Z,4.47
2023-05-05T10:15:16.401Z,6.70
2023-05-05T10:20:19.202Z,4.13
2023-05-05T10:22:52.799Z,4.22
2023-05-05T10:25:42.220Z,4.07
2023-05-05T10:28:19.658Z,3.38
2023-05-05T10:30:52.746Z,4.57
2023-05-05T10:33:39.092Z,4.78
2023-05-05T10:36:07.748Z,4.30
2023-05-05T10:38:37.241Z,3.78
2023-05-05T10:41:04.707Z,4.05
2023-05-05T10:43:32.044Z,2.95
2023-05-05T10:46:00.763Z,2.22
2023-05-05T10:48:47.274Z,2.40
2023-05-05T10:51:42.031Z,2.53
2023-05-05T10:54:52.412Z,3.22
2023-05-05T10:57:26.958Z,5.57
2023-05-05T10:59:53.978Z,2.58
2023-05-05T11:02:26.395Z,3.13
2023-05-05T11:05:09.842Z,2.85
2023-05-05T11:07:37.821Z,3.22
2023-05-05T11:10:07.999Z,3.45
2023-05-05T11:13:02.864Z,3.40
2023-05-05T11:15:37.288Z,3.47
2023-05-05T11:18:07.796Z,4.40
2023-05-05T11:20:35.024Z,4.15
2023-05-05T11:23:05.479Z,4.13
2023-05-05T11:25:42.176Z,4.20
2023-05-05T11:28:16.303Z,4.63
2023-05-05T11:33:29.841Z,4.07
2023-05-05T11:36:19.940Z,4.95
2023-05-05T11:39:11.896Z,3.78
2023-05-05T11:42:10.204Z,3.20
2023-05-05T11:44:38.153Z,3.75
2023-05-05T11:47:05.100Z,4.57
2023-05-05T11:49:32.956Z,4.80
2023-05-05T11:52:04.300Z,4.45
2023-05-05T11:54:32.027Z,4.10
2023-05-05T11:57:05.598Z,5.57
2023-05-05T11:59:34.625Z,5.10
2023-05-05T12:02:04.483Z,2.00
2023-05-05T12:04:32.212Z,1.38
2023-05-05T12:06:59.925Z,1.40
2023-05-05T12:09:27.464Z,1.60
2023-05-05T12:11:59.664Z,1.20
2023-05-05T12:14:27.517Z,1.25
2023-05-05T12:17:07.756Z,2.08
2023-05-05T12:19:36.202Z,0.93
2023-05-05T12:22:04.964Z,1.40
2023-05-05T12:24:32.122Z,1.40
2023-05-05T12:27:10.676Z,1.30
2023-05-05T12:29:37.993Z,1.33
2023-05-05T12:32:05.588Z,1.70
2023-05-05T12:34:33.365Z,1.40
2023-05-05T12:37:01.143Z,1.40
2023-05-05T12:39:38.240Z,1.70
2023-05-05T12:42:06.418Z,1.25
2023-05-05T12:44:37.937Z,1.40
2023-05-05T12:47:05.610Z,2.00
2023-05-05T12:49:45.232Z,1.42
2023-05-05T12:52:12.741Z,1.30
2023-05-05T12:54:59.664Z,1.38
2023-05-05T12:57:27.208Z,1.35
2023-05-05T12:59:54.775Z,1.10
2023-05-05T13:02:21.961Z,1.27
2023-05-05T13:04:53.480Z,1.48
2023-05-05T13:07:22.153Z,1.20
2023-05-05T13:09:50.920Z,1.80
2023-05-05T13:12:18.748Z,1.80
2023-05-05T13:14:46.815Z,1.98
2023-05-05T13:17:14.636Z,1.52
2023-05-05T13:19:42.743Z,1.83
2023-05-05T13:22:10.317Z,2.00
2023-05-05T13:24:47.161Z,2.25
2023-05-05T13:27:20.126Z,2.40
2023-05-05T13:29:47.083Z,2.50
2023-05-05T13:32:14.096Z,2.50
2023-05-05T13:34:42.472Z,2.40
2023-05-05T13:37:09.660Z,3.03
2023-05-05T13:39:37.020Z,2.70
2023-05-05T13:42:04.251Z,2.80
2023-05-05T13:44:31.452Z,3.38
2023-05-05T13:46:58.494Z,3.20
2023-05-05T13:49:25.711Z,3.15
2023-05-05T13:51:52.768Z,2.78
2023-05-05T13:54:19.743Z,3.17
2023-05-05T13:56:46.729Z,2.50
2023-05-05T13:59:13.791Z,2.60
2023-05-05T14:01:40.991Z,3.17
2023-05-05T14:04:08.364Z,2.78
2023-05-05T14:06:36.155Z,3.08
2023-05-05T14:09:05.974Z,3.00
2023-05-05T14:11:33.626Z,2.90
2023-05-05T14:14:00.782Z,3.40
2023-05-05T14:16:27.877Z,3.35
2023-05-05T14:18:55.005Z,3.05
2023-05-05T14:21:22.029Z,2.80
2023-05-05T14:23:49.088Z,3.30
2023-05-05T14:26:16.207Z,3.55
2023-05-05T14:28:43.554Z,3.63
2023-05-05T14:31:11.258Z,3.50
2023-05-05T14:33:38.509Z,2.78
2023-05-05T14:36:05.948Z,3.13
2023-05-05T14:38:32.955Z,3.17
2023-05-05T14:41:00.128Z,1.85
2023-05-05T14:43:27.120Z,1.88
2023-05-05T14:45:54.278Z,2.00
2023-05-05T14:48:22.476Z,1.98
2023-05-05T14:50:49.990Z,1.60
2023-05-05T14:53:18.928Z,1.60
2023-05-05T14:55:45.955Z,1.70
2023-05-05T14:58:12.928Z,2.00
2023-05-05T15:00:39.871Z,1.02
2023-05-05T15:03:07.007Z,0.80
2023-05-05T15:05:33.993Z,0.93
2023-05-05T15:08:01.041Z,1.10
2023-05-05T15:10:28.021Z,0.90
2023-05-05T15:12:55.071Z,1.13
2023-05-05T15:15:22.137Z,1.02
2023-05-05T15:17:49.180Z,1.00
2023-05-05T15:20:16.225Z,0.90
2023-05-05T15:22:43.279Z,0.95
2023-05-05T15:25:12.440Z,1.00
2023-05-05T15:27:39.804Z,1.50
2023-05-05T15:30:07.790Z,1.00
2023-05-05T15:32:34.875Z,1.20
2023-05-05T15:35:02.040Z,1.23
2023-05-05T15:37:29.200Z,1.15
2023-05-05T15:39:56.379Z,1.35
2023-05-05T15:42:23.676Z,1.40
2023-05-05T15:44:51.673Z,1.10
2023-05-05T15:47:18.762Z,1.30
2023-05-05T15:49:45.852Z,1.40
2023-05-05T15:52:13.914Z,1.20
2023-05-05T15:54:41.417Z,1.38
2023-05-05T15:57:08.571Z,1.10
2023-05-05T15:59:35.719Z,1.33
2023-05-05T16:02:02.883Z,1.05
2023-05-05T16:04:30.173Z,1.00
2023-05-05T16:06:58.068Z,0.77
2023-05-05T16:09:25.284Z,0.85
2023-05-05T16:11:55.305Z,0.68
2023-05-05T16:14:22.424Z,0.65
2023-05-05T16:16:49.492Z,0.75
2023-05-05T16:19:16.618Z,0.73
2023-05-05T16:21:43.617Z,1.17
2023-05-05T16:24:10.651Z,1.10
2023-05-05T16:26:37.742Z,1.05
2023-05-05T16:29:04.785Z,1.10
2023-05-05T16:31:33.988Z,1.40
2023-05-05T16:34:01.113Z,1.30
2023-05-05T16:36:28.784Z,0.90
2023-05-05T16:38:56.507Z,0.90
2023-05-05T16:41:23.890Z,0.90
2023-05-05T16:43:50.881Z,1.13
2023-05-05T16:46:18.289Z,0.90
2023-05-05T16:48:46.014Z,0.70
2023-05-05T16:51:13.075Z,0.90
2023-05-05T16:53:40.099Z,0.90
2023-05-05T16:56:07.297Z,0.95
2023-05-05T16:58:34.285Z,0.85
2023-05-05T17:01:02.739Z,1.00
2023-05-05T17:03:30.504Z,1.17
2023-05-05T17:05:58.152Z,1.13
2023-05-05T17:08:25.172Z,1.20
2023-05-05T17:10:52.177Z,1.15
2023-05-05T17:13:19.427Z,1.13
2023-05-05T17:15:46.880Z,1.45
2023-05-05T17:18:13.893Z,1.05
2023-05-05T17:20:40.970Z,0.93
2023-05-05T17:23:08.800Z,1.00
2023-05-05T17:25:36.036Z,0.85
2023-05-05T17:28:03.189Z,0.80
2023-05-05T17:30:30.248Z,0.80
2023-05-05T17:32:57.596Z,0.82
2023-05-05T17:35:24.615Z,0.73
2023-05-05T17:37:51.845Z,0.90
2023-05-05T17:40:18.840Z,0.60
2023-05-05T17:42:45.940Z,0.80
2023-05-05T17:45:13.014Z,0.82
2023-05-05T17:47:40.091Z,0.80
2023-05-05T17:50:07.694Z,0.80
2023-05-05T17:52:34.632Z,0.90
2023-05-05T17:55:01.616Z,0.95
2023-05-05T17:57:28.679Z,0.80
2023-05-05T17:59:55.671Z,0.88
2023-05-05T18:02:24.004Z,0.90
2023-05-05T18:04:51.235Z,0.98
2023-05-05T18:07:18.197Z,0.88
2023-05-05T18:09:45.252Z,1.20
2023-05-05T18:12:12.192Z,0.93
2023-05-05T18:14:39.224Z,0.82
2023-05-05T18:17:06.172Z,0.75
2023-05-05T18:19:33.116Z,1.00
2023-05-05T18:22:00.166Z,1.30
2023-05-05T18:24:28.137Z,1.13
2023-05-05T18:26:55.435Z,0.82
2023-05-05T18:29:22.544Z,1.33
2023-05-05T18:31:53.032Z,1.17
2023-05-05T18:34:21.100Z,1.13
2023-05-05T18:36:51.034Z,1.02
2023-05-05T18:39:18.054Z,1.10
2023-05-05T18:41:45.140Z,1.20
2023-05-05T18:44:12.207Z,1.05
2023-05-05T18:46:39.339Z,1.40
2023-05-05T18:49:06.420Z,1.73
2023-05-05T18:51:33.416Z,1.60
2023-05-05T18:54:03.131Z,1.40
2023-05-05T18:56:31.176Z,1.77
2023-05-05T18:58:58.243Z,1.98
2023-05-05T19:01:25.448Z,1.50
2023-05-05T19:03:52.573Z,2.00
2023-05-05T19:06:19.579Z,1.90
2023-05-05T19:08:47.104Z,2.00
2023-05-05T19:11:15.109Z,1.77
2023-05-05T19:13:42.547Z,2.10
2023-05-05T19:16:11.172Z,2.15
2023-05-05T19:18:38.795Z,2.03
2023-05-05T19:21:05.823Z,2.40
2023-05-05T19:23:33.404Z,2.25
2023-05-05T19:26:00.638Z,2.67
2023-05-05T19:28:27.634Z,2.30
2023-05-05T19:30:54.688Z,2.50
2023-05-05T19:33:22.235Z,2.08
2023-05-05T19:35:49.874Z,2.60
2023-05-05T19:38:16.916Z,2.42
2023-05-05T19:40:43.886Z,2.38
2023-05-05T19:43:10.847Z,2.60
2023-05-05T19:45:38.037Z,2.53
2023-05-05T19:48:05.693Z,2.40
2023-05-05T19:50:32.709Z,2.83
2023-05-05T19:52:59.674Z,2.78
2023-05-05T19:55:27.036Z,2.72
2023-05-05T19:57:54.110Z,2.70
2023-05-05T20:00:21.617Z,2.97
2023-05-05T20:02:49.033Z,2.92
2023-05-05T20:05:17.386Z,2.95
2023-05-05T20:07:46.787Z,2.63
2023-05-05T20:10:13.982Z,2.50
2023-05-05T20:12:48.869Z,2.58
2023-05-05T20:15:18.954Z,2.95
2023-05-05T20:17:47.820Z,2.85
2023-05-05T20:20:21.861Z,3.30
2023-05-05T20:22:49.587Z,3.10
2023-05-05T20:25:16.752Z,3.22
2023-05-05T20:27:45.717Z,3.28
2023-05-05T20:30:13.188Z,3.28
2023-05-05T20:32:40.885Z,3.35
2023-05-05T20:35:08.991Z,3.65
2023-05-05T20:37:36.029Z,3.40
2023-05-05T20:40:03.803Z,3.45
2023-05-05T20:42:30.914Z,3.40
2023-05-05T20:45:00.949Z,3.60
2023-05-05T20:47:28.029Z,3.67
2023-05-05T20:49:55.034Z,3.65
2023-05-05T20:52:22.138Z,3.40
2023-05-05T20:54:49.080Z,3.90
2023-05-05T20:57:16.124Z,4.57
2023-05-05T20:59:43.094Z,4.07
2023-05-05T21:02:10.255Z,3.80
2023-05-05T21:04:37.303Z,4.10
2023-05-05T21:07:04.453Z,4.10
2023-05-05T21:09:31.647Z,4.35
2023-05-05T21:11:58.782Z,4.28
2023-05-05T21:14:25.925Z,4.05
2023-05-05T21:16:52.981Z,4.68
2023-05-05T21:19:19.929Z,4.70
2023-05-05T21:21:47.600Z,4.60
2023-05-05T21:24:14.673Z,4.10
2023-05-05T21:26:45.625Z,4.63
2023-05-05T21:29:12.657Z,4.78
2023-05-05T21:31:39.680Z,4.90
2023-05-05T21:34:06.693Z,4.90
2023-05-05T21:36:33.922Z,4.97
2023-05-05T21:39:01.224Z,5.40
2023-05-05T21:41:28.362Z,5.15
2023-05-05T21:43:55.755Z,5.28
2023-05-05T21:46:22.988Z,5.28
2023-05-05T21:48:50.086Z,5.38
2023-05-05T21:51:17.465Z,4.85
2023-05-05T21:53:44.674Z,5.32
2023-05-05T21:56:11.661Z,5.45
2023-05-05T21:58:38.707Z,5.80
2023-05-05T22:01:05.807Z,5.90
2023-05-05T22:03:34.569Z,6.28
2023-05-05T22:06:01.784Z,5.25
2023-05-05T22:08:28.767Z,6.20
2023-05-05T22:10:55.776Z,7.05
2023-05-05T22:13:22.796Z,6.68
2023-05-05T22:15:50.239Z,6.22
2023-05-05T22:18:17.264Z,6.25
2023-05-05T22:20:44.539Z,6.05
2023-05-05T22:23:11.718Z,5.82
2023-05-05T22:25:38.645Z,6.85
2023-05-05T22:28:05.658Z,7.78
2023-05-05T22:30:32.872Z,7.38
2023-05-05T22:32:59.863Z,7.95
2023-05-05T22:35:27.412Z,8.75
2023-05-05T22:37:54.431Z,8.43
2023-05-05T22:40:21.455Z,8.20
2023-05-05T22:42:48.435Z,8.35
2023-05-05T22:45:15.726Z,8.40
2023-05-05T22:47:42.757Z,8.02
2023-05-05T22:50:10.317Z,7.93
2023-05-05T22:52:37.317Z,7.97
2023-05-05T22:55:04.807Z,7.78
2023-05-05T22:57:34.695Z,6.97
2023-05-05T23:01:07.263Z,7.28
2023-05-05T23:03:34.404Z,7.70
2023-05-05T23:06:01.380Z,8.35
2023-05-05T23:08:28.338Z,8.93
2023-05-05T23:10:56.117Z,9.57
2023-05-05T23:13:23.211Z,11.18
2023-05-05T23:15:50.293Z,12.07
2023-05-05T23:18:17.307Z,12.85
2023-05-05T23:20:44.352Z,15.30
2023-05-05T23:23:11.338Z,14.18
2023-05-05T23:25:38.329Z,13.02
2023-05-05T23:28:05.319Z,13.82
2023-05-05T23:30:32.349Z,14.25
2023-05-05T23:33:00.911Z,12.85
2023-05-05T23:35:27.885Z,14.63
2023-05-05T23:37:54.893Z,14.10
2023-05-05T23:40:22.274Z,13.10
2023-05-05T23:42:49.312Z,12.73
2023-05-05T23:45:18.635Z,12.07
2023-05-05T23:47:46.397Z,12.00
2023-05-05T23:50:13.436Z,12.23
2023-05-05T23:52:41.723Z,13.80
2023-05-05T23:55:10.273Z,12.85
2023-05-05T23:57:37.763Z,13.65
